sensor_id;sensor_type;location;lat;lon;timestamp;pressure;altitude;pressure_sealevel;temperature;humidity
81999;BME280;71598;46.516;-122.928;2023-08-08T00:01:05;100415.25;;;20.16;25.37
81999;BME280;71598;46.516;-122.928;2023-08-08T00:03:30;100414.63;;;20.41;25.42
81999;BME280;71598;46.516;-122.928;2023-08-08T00:05:56;100410.72;;;20.40;25.49
81999;BME280;71598;46.516;-122.928;2023-08-08T00:08:21;100410.34;;;20.52;25.53
81999;BME280;71598;46.516;-122.928;2023-08-08T00:10:47;100411.68;;;20.07;25.57
81999;BME280;71598;46.516;-122.928;2023-08-08T00:13:13;100410.78;;;20.04;25.56
81999;BME280;71598;46.516;-122.928;2023-08-08T00:15:39;100406.51;;;20.62;25.57
81999;BME280;71598;46.516;-122.928;2023-08-08T00:18:05;100411.69;;;20.46;25.56
81999;BME280;71598;46.516;-122.928;2023-08-08T00:20:30;100407.24;;;20.51;25.45
81999;BME280;71598;46.516;-122.928;2023-08-08T00:22:56;100406.47;;;20.71;25.53
81999;BME280;71598;46.516;-122.928;2023-08-08T00:25:21;100408.10;;;20.63;25.60
81999;BME280;71598;46.516;-122.928;2023-08-08T00:27:47;100405.82;;;20.78;25.59
81999;BME280;71598;46.516;-122.928;2023-08-08T00:30:13;100407.27;;;20.97;25.54
81999;BME280;71598;46.516;-122.928;2023-08-08T00:32:38;100412.25;;;21.37;24.76
81999;BME280;71598;46.516;-122.928;2023-08-08T00:35:06;100405.82;;;21.70;23.75
81999;BME280;71598;46.516;-122.928;2023-08-08T00:37:31;100406.33;;;20.57;24.40
81999;BME280;71598;46.516;-122.928;2023-08-08T00:39:56;100407.49;;;20.58;24.71
81999;BME280;71598;46.516;-122.928;2023-08-08T00:42:21;100405.30;;;20.58;24.83
81999;BME280;71598;46.516;-122.928;2023-08-08T00:44:46;100404.45;;;20.30;24.88
81999;BME280;71598;46.516;-122.928;2023-08-08T00:47:11;100401.66;;;20.71;24.72
81999;BME280;71598;46.516;-122.928;2023-08-08T00:49:37;100400.62;;;20.45;24.70
81999;BME280;71598;46.516;-122.928;2023-08-08T00:52:02;100397.55;;;20.99;24.68
81999;BME280;71598;46.516;-122.928;2023-08-08T00:54:28;100395.81;;;20.94;24.50
81999;BME280;71598;46.516;-122.928;2023-08-08T00:56:53;100396.19;;;21.36;24.54
81999;BME280;71598;46.516;-122.928;2023-08-08T00:59:19;100395.99;;;20.94;24.68
81999;BME280;71598;46.516;-122.928;2023-08-08T01:01:44;100398.85;;;20.95;24.82
81999;BME280;71598;46.516;-122.928;2023-08-08T01:04:09;100394.49;;;20.20;24.82
81999;BME280;71598;46.516;-122.928;2023-08-08T01:06:40;100393.52;;;20.99;24.90
81999;BME280;71598;46.516;-122.928;2023-08-08T01:09:03;100391.16;;;20.85;24.92
81999;BME280;71598;46.516;-122.928;2023-08-08T01:11:28;100390.48;;;20.63;24.94
81999;BME280;71598;46.516;-122.928;2023-08-08T01:13:52;100388.61;;;21.17;24.82
81999;BME280;71598;46.516;-122.928;2023-08-08T01:16:18;100387.62;;;20.41;25.04
81999;BME280;71598;46.516;-122.928;2023-08-08T01:18:42;100382.23;;;20.71;24.99
81999;BME280;71598;46.516;-122.928;2023-08-08T01:21:09;100375.55;;;20.94;24.94
81999;BME280;71598;46.516;-122.928;2023-08-08T01:23:39;100374.48;;;21.58;24.52
81999;BME280;71598;46.516;-122.928;2023-08-08T01:25:58;100372.34;;;21.74;24.49
81999;BME280;71598;46.516;-122.928;2023-08-08T01:28:23;100371.66;;;21.95;24.21
81999;BME280;71598;46.516;-122.928;2023-08-08T01:30:48;100371.68;;;21.76;24.13
81999;BME280;71598;46.516;-122.928;2023-08-08T01:33:14;100370.28;;;21.83;24.04
81999;BME280;71598;46.516;-122.928;2023-08-08T01:35:41;100368.67;;;21.26;24.50
81999;BME280;71598;46.516;-122.928;2023-08-08T01:38:10;100364.94;;;21.72;24.13
81999;BME280;71598;46.516;-122.928;2023-08-08T01:40:31;100359.88;;;22.17;23.98
81999;BME280;71598;46.516;-122.928;2023-08-08T01:42:55;100363.26;;;21.92;24.15
81999;BME280;71598;46.516;-122.928;2023-08-08T01:45:20;100363.84;;;21.60;24.28
81999;BME280;71598;46.516;-122.928;2023-08-08T01:47:50;100358.46;;;21.22;24.58
81999;BME280;71598;46.516;-122.928;2023-08-08T01:50:11;100359.42;;;21.54;23.75
81999;BME280;71598;46.516;-122.928;2023-08-08T01:52:36;100355.91;;;22.22;23.05
81999;BME280;71598;46.516;-122.928;2023-08-08T01:55:01;100359.93;;;22.08;23.03
81999;BME280;71598;46.516;-122.928;2023-08-08T01:57:26;100361.79;;;22.25;23.21
81999;BME280;71598;46.516;-122.928;2023-08-08T01:59:52;100362.55;;;21.42;23.48
81999;BME280;71598;46.516;-122.928;2023-08-08T02:02:17;100362.56;;;21.25;23.74
81999;BME280;71598;46.516;-122.928;2023-08-08T02:04:42;100365.92;;;21.23;23.76
81999;BME280;71598;46.516;-122.928;2023-08-08T02:07:08;100363.19;;;21.64;23.74
81999;BME280;71598;46.516;-122.928;2023-08-08T02:09:33;100361.18;;;21.68;23.77
81999;BME280;71598;46.516;-122.928;2023-08-08T02:11:58;100359.10;;;22.20;23.54
81999;BME280;71598;46.516;-122.928;2023-08-08T02:14:24;100360.02;;;22.35;23.54
81999;BME280;71598;46.516;-122.928;2023-08-08T02:16:49;100359.94;;;22.25;23.45
81999;BME280;71598;46.516;-122.928;2023-08-08T02:19:19;100361.47;;;22.34;23.38
81999;BME280;71598;46.516;-122.928;2023-08-08T02:21:39;100363.56;;;22.33;23.32
81999;BME280;71598;46.516;-122.928;2023-08-08T02:24:06;100366.36;;;21.97;23.48
81999;BME280;71598;46.516;-122.928;2023-08-08T02:26:30;100368.11;;;22.16;23.10
81999;BME280;71598;46.516;-122.928;2023-08-08T02:28:56;100367.38;;;22.32;22.51
81999;BME280;71598;46.516;-122.928;2023-08-08T02:31:23;100368.13;;;22.49;22.57
81999;BME280;71598;46.516;-122.928;2023-08-08T02:33:47;100373.11;;;22.35;22.73
81999;BME280;71598;46.516;-122.928;2023-08-08T02:36:12;100373.00;;;22.58;22.80
81999;BME280;71598;46.516;-122.928;2023-08-08T02:38:38;100371.77;;;22.14;22.78
81999;BME280;71598;46.516;-122.928;2023-08-08T02:41:03;100372.57;;;22.24;22.81
81999;BME280;71598;46.516;-122.928;2023-08-08T02:43:28;100373.38;;;22.35;22.87
81999;BME280;71598;46.516;-122.928;2023-08-08T02:45:54;100372.56;;;22.71;22.93
81999;BME280;71598;46.516;-122.928;2023-08-08T02:48:19;100375.49;;;22.34;22.92
81999;BME280;71598;46.516;-122.928;2023-08-08T02:50:44;100376.65;;;22.56;22.93
81999;BME280;71598;46.516;-122.928;2023-08-08T02:53:10;100376.52;;;22.45;22.90
81999;BME280;71598;46.516;-122.928;2023-08-08T02:55:37;100379.83;;;22.47;22.93
81999;BME280;71598;46.516;-122.928;2023-08-08T02:58:01;100377.19;;;22.49;22.96
81999;BME280;71598;46.516;-122.928;2023-08-08T03:00:27;100377.33;;;22.84;22.97
81999;BME280;71598;46.516;-122.928;2023-08-08T03:02:52;100383.97;;;21.13;24.32
81999;BME280;71598;46.516;-122.928;2023-08-08T03:05:18;100384.49;;;20.35;25.14
81999;BME280;71598;46.516;-122.928;2023-08-08T03:07:44;100387.90;;;19.90;25.20
81999;BME280;71598;46.516;-122.928;2023-08-08T03:10:09;100387.16;;;19.68;25.39
81999;BME280;71598;46.516;-122.928;2023-08-08T03:12:34;100388.77;;;19.51;25.26
81999;BME280;71598;46.516;-122.928;2023-08-08T03:15:00;100388.16;;;19.32;25.31
81999;BME280;71598;46.516;-122.928;2023-08-08T03:17:26;100387.02;;;19.63;24.37
81999;BME280;71598;46.516;-122.928;2023-08-08T03:19:51;100392.01;;;18.53;24.91
81999;BME280;71598;46.516;-122.928;2023-08-08T03:22:16;100392.04;;;19.80;24.79
81999;BME280;71598;46.516;-122.928;2023-08-08T03:24:42;100392.41;;;19.38;24.77
81999;BME280;71598;46.516;-122.928;2023-08-08T03:27:07;100392.11;;;19.27;24.89
81999;BME280;71598;46.516;-122.928;2023-08-08T03:29:33;100390.81;;;19.89;24.61
81999;BME280;71598;46.516;-122.928;2023-08-08T03:31:58;100393.17;;;19.59;24.65
81999;BME280;71598;46.516;-122.928;2023-08-08T03:34:24;100395.19;;;19.71;24.39
81999;BME280;71598;46.516;-122.928;2023-08-08T03:36:49;100396.75;;;18.89;24.85
81999;BME280;71598;46.516;-122.928;2023-08-08T03:39:16;100395.80;;;19.01;24.55
81999;BME280;71598;46.516;-122.928;2023-08-08T03:41:41;100397.09;;;19.13;24.54
81999;BME280;71598;46.516;-122.928;2023-08-08T03:44:06;100398.26;;;19.49;24.44
81999;BME280;71598;46.516;-122.928;2023-08-08T03:46:32;100402.74;;;18.83;24.81
81999;BME280;71598;46.516;-122.928;2023-08-08T03:48:57;100400.81;;;19.56;24.74
81999;BME280;71598;46.516;-122.928;2023-08-08T03:51:22;100399.59;;;19.47;24.86
81999;BME280;71598;46.516;-122.928;2023-08-08T03:53:51;100398.44;;;18.89;24.65
81999;BME280;71598;46.516;-122.928;2023-08-08T03:56:12;100398.02;;;18.45;24.85
81999;BME280;71598;46.516;-122.928;2023-08-08T03:58:38;100402.07;;;17.93;25.58
81999;BME280;71598;46.516;-122.928;2023-08-08T04:01:03;100405.35;;;17.79;25.58
81999;BME280;71598;46.516;-122.928;2023-08-08T04:03:29;100409.38;;;17.86;25.61
81999;BME280;71598;46.516;-122.928;2023-08-08T04:05:54;100409.02;;;17.94;25.89
81999;BME280;71598;46.516;-122.928;2023-08-08T04:08:19;100413.23;;;17.87;25.97
81999;BME280;71598;46.516;-122.928;2023-08-08T04:10:47;100415.48;;;17.61;26.14
81999;BME280;71598;46.516;-122.928;2023-08-08T04:13:10;100416.36;;;17.49;26.51
81999;BME280;71598;46.516;-122.928;2023-08-08T04:15:35;100417.71;;;18.75;25.92
81999;BME280;71598;46.516;-122.928;2023-08-08T04:18:00;100421.92;;;18.13;25.77
81999;BME280;71598;46.516;-122.928;2023-08-08T04:20:25;100417.53;;;18.34;25.14
81999;BME280;71598;46.516;-122.928;2023-08-08T04:22:51;100418.78;;;18.20;25.28
81999;BME280;71598;46.516;-122.928;2023-08-08T04:25:16;100418.30;;;17.41;25.72
81999;BME280;71598;46.516;-122.928;2023-08-08T04:27:41;100417.60;;;18.23;25.47
81999;BME280;71598;46.516;-122.928;2023-08-08T04:30:08;100419.32;;;18.26;25.25
81999;BME280;71598;46.516;-122.928;2023-08-08T04:32:32;100419.12;;;18.83;25.02
81999;BME280;71598;46.516;-122.928;2023-08-08T04:34:58;100421.06;;;18.16;25.23
81999;BME280;71598;46.516;-122.928;2023-08-08T04:37:23;100420.70;;;18.28;25.55
81999;BME280;71598;46.516;-122.928;2023-08-08T04:39:50;100423.55;;;17.58;26.12
81999;BME280;71598;46.516;-122.928;2023-08-08T04:42:15;100424.73;;;18.18;25.92
81999;BME280;71598;46.516;-122.928;2023-08-08T04:44:40;100422.35;;;19.72;24.74
81999;BME280;71598;46.516;-122.928;2023-08-08T04:47:06;100425.26;;;19.30;24.46
81999;BME280;71598;46.516;-122.928;2023-08-08T04:49:31;100425.53;;;18.50;24.49
81999;BME280;71598;46.516;-122.928;2023-08-08T04:51:57;100429.13;;;17.48;25.23
81999;BME280;71598;46.516;-122.928;2023-08-08T04:54:22;100428.25;;;17.90;25.21
81999;BME280;71598;46.516;-122.928;2023-08-08T04:56:48;100427.18;;;17.16;25.89
81999;BME280;71598;46.516;-122.928;2023-08-08T04:59:13;100427.54;;;17.54;25.65
81999;BME280;71598;46.516;-122.928;2023-08-08T05:01:39;100429.24;;;17.35;25.94
81999;BME280;71598;46.516;-122.928;2023-08-08T05:04:05;100427.25;;;17.29;25.82
81999;BME280;71598;46.516;-122.928;2023-08-08T05:06:30;100427.90;;;17.14;26.30
81999;BME280;71598;46.516;-122.928;2023-08-08T05:08:56;100434.55;;;16.91;26.58
81999;BME280;71598;46.516;-122.928;2023-08-08T05:11:21;100435.36;;;16.85;26.67
81999;BME280;71598;46.516;-122.928;2023-08-08T05:13:47;100430.42;;;16.97;26.63
81999;BME280;71598;46.516;-122.928;2023-08-08T05:16:13;100433.64;;;17.11;26.62
81999;BME280;71598;46.516;-122.928;2023-08-08T05:18:38;100434.04;;;17.32;26.52
81999;BME280;71598;46.516;-122.928;2023-08-08T05:21:04;100431.83;;;17.10;26.70
81999;BME280;71598;46.516;-122.928;2023-08-08T05:23:29;100429.27;;;17.87;26.28
81999;BME280;71598;46.516;-122.928;2023-08-08T05:25:55;100427.40;;;17.89;26.30
81999;BME280;71598;46.516;-122.928;2023-08-08T05:28:20;100430.57;;;17.29;26.82
81999;BME280;71598;46.516;-122.928;2023-08-08T05:30:45;100430.33;;;18.29;26.09
81999;BME280;71598;46.516;-122.928;2023-08-08T05:33:11;100434.50;;;17.24;26.77
81999;BME280;71598;46.516;-122.928;2023-08-08T05:35:36;100434.31;;;18.75;25.55
81999;BME280;71598;46.516;-122.928;2023-08-08T05:38:02;100438.43;;;18.88;25.21
81999;BME280;71598;46.516;-122.928;2023-08-08T05:40:29;100438.46;;;18.75;24.84
81999;BME280;71598;46.516;-122.928;2023-08-08T05:42:53;100441.93;;;17.77;25.25
81999;BME280;71598;46.516;-122.928;2023-08-08T05:45:18;100441.00;;;17.82;25.61
81999;BME280;71598;46.516;-122.928;2023-08-08T05:47:44;100446.95;;;17.63;25.66
81999;BME280;71598;46.516;-122.928;2023-08-08T05:50:09;100451.66;;;17.97;25.54
81999;BME280;71598;46.516;-122.928;2023-08-08T05:52:34;100449.91;;;17.49;25.69
81999;BME280;71598;46.516;-122.928;2023-08-08T05:54:59;100451.41;;;18.21;25.17
81999;BME280;71598;46.516;-122.928;2023-08-08T05:57:25;100450.46;;;17.76;25.52
81999;BME280;71598;46.516;-122.928;2023-08-08T05:59:50;100453.36;;;17.56;25.54
81999;BME280;71598;46.516;-122.928;2023-08-08T06:02:16;100452.55;;;18.06;25.43
81999;BME280;71598;46.516;-122.928;2023-08-08T06:04:42;100452.01;;;18.12;25.37
81999;BME280;71598;46.516;-122.928;2023-08-08T06:07:07;100450.89;;;17.71;25.84
81999;BME280;71598;46.516;-122.928;2023-08-08T06:09:33;100444.48;;;18.00;25.92
81999;BME280;71598;46.516;-122.928;2023-08-08T06:11:59;100443.51;;;17.63;26.01
81999;BME280;71598;46.516;-122.928;2023-08-08T06:14:24;100442.55;;;18.14;25.81
81999;BME280;71598;46.516;-122.928;2023-08-08T06:16:49;100439.62;;;17.64;26.20
81999;BME280;71598;46.516;-122.928;2023-08-08T06:19:14;100438.46;;;17.91;26.27
81999;BME280;71598;46.516;-122.928;2023-08-08T06:21:39;100440.72;;;16.91;26.83
81999;BME280;71598;46.516;-122.928;2023-08-08T06:24:04;100440.51;;;17.75;26.47
81999;BME280;71598;46.516;-122.928;2023-08-08T06:26:29;100439.21;;;18.12;26.26
81999;BME280;71598;46.516;-122.928;2023-08-08T06:28:54;100439.11;;;18.56;25.90
81999;BME280;71598;46.516;-122.928;2023-08-08T06:31:20;100442.89;;;18.08;26.35
81999;BME280;71598;46.516;-122.928;2023-08-08T06:33:45;100441.93;;;18.68;25.98
81999;BME280;71598;46.516;-122.928;2023-08-08T06:36:10;100440.61;;;18.77;25.94
81999;BME280;71598;46.516;-122.928;2023-08-08T06:38:35;100440.06;;;18.35;26.29
81999;BME280;71598;46.516;-122.928;2023-08-08T06:41:02;100439.32;;;18.10;26.47
81999;BME280;71598;46.516;-122.928;2023-08-08T06:43:26;100442.73;;;17.87;26.70
81999;BME280;71598;46.516;-122.928;2023-08-08T06:45:51;100443.32;;;17.12;27.19
81999;BME280;71598;46.516;-122.928;2023-08-08T06:48:16;100442.02;;;17.98;26.77
81999;BME280;71598;46.516;-122.928;2023-08-08T06:50:42;100441.18;;;18.13;26.62
81999;BME280;71598;46.516;-122.928;2023-08-08T06:53:07;100444.18;;;17.52;26.95
81999;BME280;71598;46.516;-122.928;2023-08-08T06:55:32;100447.31;;;16.97;27.08
81999;BME280;71598;46.516;-122.928;2023-08-08T06:57:58;100450.06;;;16.96;27.40
81999;BME280;71598;46.516;-122.928;2023-08-08T07:00:23;100455.08;;;17.00;27.38
81999;BME280;71598;46.516;-122.928;2023-08-08T07:02:49;100454.75;;;17.25;27.16
81999;BME280;71598;46.516;-122.928;2023-08-08T07:05:14;100452.81;;;17.67;27.04
81999;BME280;71598;46.516;-122.928;2023-08-08T07:07:40;100456.20;;;17.65;27.02
81999;BME280;71598;46.516;-122.928;2023-08-08T07:10:05;100458.38;;;17.37;27.27
81999;BME280;71598;46.516;-122.928;2023-08-08T07:12:31;100459.60;;;17.31;27.33
81999;BME280;71598;46.516;-122.928;2023-08-08T07:14:56;100460.83;;;16.80;27.72
81999;BME280;71598;46.516;-122.928;2023-08-08T07:17:21;100461.50;;;17.11;27.69
81999;BME280;71598;46.516;-122.928;2023-08-08T07:19:46;100464.33;;;17.09;27.92
81999;BME280;71598;46.516;-122.928;2023-08-08T07:22:12;100461.62;;;17.84;27.15
81999;BME280;71598;46.516;-122.928;2023-08-08T07:24:38;100465.54;;;18.24;27.09
81999;BME280;71598;46.516;-122.928;2023-08-08T07:27:04;100464.83;;;17.60;27.31
81999;BME280;71598;46.516;-122.928;2023-08-08T07:29:29;100464.42;;;18.73;26.63
81999;BME280;71598;46.516;-122.928;2023-08-08T07:31:54;100466.19;;;18.56;26.49
81999;BME280;71598;46.516;-122.928;2023-08-08T07:34:19;100468.18;;;18.26;26.85
81999;BME280;71598;46.516;-122.928;2023-08-08T07:36:44;100467.50;;;18.36;26.74
81999;BME280;71598;46.516;-122.928;2023-08-08T07:39:09;100468.37;;;17.95;27.05
81999;BME280;71598;46.516;-122.928;2023-08-08T07:41:35;100469.35;;;17.72;27.35
81999;BME280;71598;46.516;-122.928;2023-08-08T07:44:01;100470.49;;;16.89;27.84
81999;BME280;71598;46.516;-122.928;2023-08-08T07:46:26;100469.50;;;16.62;28.11
81999;BME280;71598;46.516;-122.928;2023-08-08T07:48:51;100469.28;;;16.69;28.00
81999;BME280;71598;46.516;-122.928;2023-08-08T07:51:16;100468.31;;;16.94;28.03
81999;BME280;71598;46.516;-122.928;2023-08-08T07:53:43;100475.30;;;16.70;28.49
81999;BME280;71598;46.516;-122.928;2023-08-08T07:56:07;100473.18;;;16.32;28.55
81999;BME280;71598;46.516;-122.928;2023-08-08T07:58:32;100469.85;;;17.08;28.33
81999;BME280;71598;46.516;-122.928;2023-08-08T08:00:58;100469.60;;;16.75;28.36
81999;BME280;71598;46.516;-122.928;2023-08-08T08:03:24;100469.98;;;16.63;28.28
81999;BME280;71598;46.516;-122.928;2023-08-08T08:05:50;100467.65;;;16.99;28.26
81999;BME280;71598;46.516;-122.928;2023-08-08T08:08:14;100467.12;;;16.90;28.28
81999;BME280;71598;46.516;-122.928;2023-08-08T08:10:39;100466.61;;;17.02;28.04
81999;BME280;71598;46.516;-122.928;2023-08-08T08:13:06;100469.10;;;16.71;28.22
81999;BME280;71598;46.516;-122.928;2023-08-08T08:15:30;100470.49;;;16.73;28.22
81999;BME280;71598;46.516;-122.928;2023-08-08T08:17:55;100463.47;;;18.05;27.29
81999;BME280;71598;46.516;-122.928;2023-08-08T08:20:21;100466.26;;;17.90;27.30
81999;BME280;71598;46.516;-122.928;2023-08-08T08:22:45;100470.31;;;17.74;27.53
81999;BME280;71598;46.516;-122.928;2023-08-08T08:25:11;100471.07;;;18.15;27.07
81999;BME280;71598;46.516;-122.928;2023-08-08T08:27:36;100467.27;;;18.18;27.11
81999;BME280;71598;46.516;-122.928;2023-08-08T08:30:01;100464.55;;;18.23;27.22
81999;BME280;71598;46.516;-122.928;2023-08-08T08:32:27;100468.06;;;18.02;27.27
81999;BME280;71598;46.516;-122.928;2023-08-08T08:34:52;100466.20;;;18.00;27.43
81999;BME280;71598;46.516;-122.928;2023-08-08T08:37:18;100465.98;;;18.03;27.16
81999;BME280;71598;46.516;-122.928;2023-08-08T08:39:43;100466.22;;;17.16;27.81
81999;BME280;71598;46.516;-122.928;2023-08-08T08:42:09;100471.81;;;17.20;28.25
81999;BME280;71598;46.516;-122.928;2023-08-08T08:44:36;100471.83;;;16.48;28.56
81999;BME280;71598;46.516;-122.928;2023-08-08T08:47:02;100472.47;;;17.02;28.58
81999;BME280;71598;46.516;-122.928;2023-08-08T08:49:25;100474.62;;;16.76;28.62
81999;BME280;71598;46.516;-122.928;2023-08-08T08:51:50;100472.92;;;17.13;28.40
81999;BME280;71598;46.516;-122.928;2023-08-08T08:54:16;100473.22;;;16.83;28.60
81999;BME280;71598;46.516;-122.928;2023-08-08T08:56:42;100473.38;;;16.88;28.46
81999;BME280;71598;46.516;-122.928;2023-08-08T08:59:06;100475.55;;;16.41;28.61
81999;BME280;71598;46.516;-122.928;2023-08-08T09:01:31;100473.84;;;16.66;28.55
81999;BME280;71598;46.516;-122.928;2023-08-08T09:03:58;100475.29;;;16.85;28.57
81999;BME280;71598;46.516;-122.928;2023-08-08T09:06:22;100475.10;;;16.89;28.64
81999;BME280;71598;46.516;-122.928;2023-08-08T09:08:47;100474.75;;;16.43;29.07
81999;BME280;71598;46.516;-122.928;2023-08-08T09:11:12;100473.19;;;15.81;29.09
81999;BME280;71598;46.516;-122.928;2023-08-08T09:13:39;100473.97;;;16.85;28.64
81999;BME280;71598;46.516;-122.928;2023-08-08T09:16:04;100473.08;;;17.65;28.15
81999;BME280;71598;46.516;-122.928;2023-08-08T09:18:28;100467.61;;;17.73;27.80
81999;BME280;71598;46.516;-122.928;2023-08-08T09:20:54;100470.24;;;17.68;27.98
81999;BME280;71598;46.516;-122.928;2023-08-08T09:23:19;100471.32;;;17.59;28.07
81999;BME280;71598;46.516;-122.928;2023-08-08T09:25:44;100468.97;;;17.38;28.07
81999;BME280;71598;46.516;-122.928;2023-08-08T09:28:09;100469.28;;;17.04;28.58
81999;BME280;71598;46.516;-122.928;2023-08-08T09:30:35;100470.05;;;17.32;28.34
81999;BME280;71598;46.516;-122.928;2023-08-08T09:33:01;100472.97;;;16.99;28.73
81999;BME280;71598;46.516;-122.928;2023-08-08T09:35:26;100471.68;;;17.06;28.63
81999;BME280;71598;46.516;-122.928;2023-08-08T09:37:53;100469.61;;;17.50;28.55
81999;BME280;71598;46.516;-122.928;2023-08-08T09:40:16;100469.78;;;17.35;28.42
81999;BME280;71598;46.516;-122.928;2023-08-08T09:42:41;100470.97;;;16.71;29.00
81999;BME280;71598;46.516;-122.928;2023-08-08T09:45:10;100469.69;;;17.11;28.55
81999;BME280;71598;46.516;-122.928;2023-08-08T09:47:32;100468.32;;;16.51;28.94
81999;BME280;71598;46.516;-122.928;2023-08-08T09:49:59;100464.69;;;16.96;28.75
81999;BME280;71598;46.516;-122.928;2023-08-08T09:52:23;100463.80;;;17.02;28.81
81999;BME280;71598;46.516;-122.928;2023-08-08T09:54:49;100463.32;;;17.18;28.54
81999;BME280;71598;46.516;-122.928;2023-08-08T09:57:14;100462.52;;;16.54;28.77
81999;BME280;71598;46.516;-122.928;2023-08-08T09:59:39;100459.84;;;16.98;28.91
81999;BME280;71598;46.516;-122.928;2023-08-08T10:02:05;100462.09;;;17.01;29.01
81999;BME280;71598;46.516;-122.928;2023-08-08T10:04:30;100465.95;;;17.33;29.10
81999;BME280;71598;46.516;-122.928;2023-08-08T10:06:55;100466.44;;;17.05;28.97
81999;BME280;71598;46.516;-122.928;2023-08-08T10:09:20;100464.56;;;17.34;28.91
81999;BME280;71598;46.516;-122.928;2023-08-08T10:11:47;100463.65;;;17.34;28.83
81999;BME280;71598;46.516;-122.928;2023-08-08T10:14:12;100461.60;;;16.89;29.14
81999;BME280;71598;46.516;-122.928;2023-08-08T10:16:37;100461.63;;;17.19;28.79
81999;BME280;71598;46.516;-122.928;2023-08-08T10:19:03;100459.55;;;17.18;29.07
81999;BME280;71598;46.516;-122.928;2023-08-08T10:21:27;100458.80;;;17.20;29.07
81999;BME280;71598;46.516;-122.928;2023-08-08T10:24:03;100455.37;;;17.34;29.02
81999;BME280;71598;46.516;-122.928;2023-08-08T10:26:19;100453.42;;;16.80;29.30
81999;BME280;71598;46.516;-122.928;2023-08-08T10:28:54;100456.54;;;16.71;29.61
81999;BME280;71598;46.516;-122.928;2023-08-08T10:31:18;100451.05;;;17.40;29.02
81999;BME280;71598;46.516;-122.928;2023-08-08T10:33:41;100454.12;;;17.41;28.96
81999;BME280;71598;46.516;-122.928;2023-08-08T10:36:00;100446.81;;;16.84;29.57
81999;BME280;71598;46.516;-122.928;2023-08-08T10:38:26;100445.17;;;17.26;29.01
81999;BME280;71598;46.516;-122.928;2023-08-08T10:40:56;100445.00;;;16.60;29.67
81999;BME280;71598;46.516;-122.928;2023-08-08T10:43:15;100445.78;;;17.01;29.17
81999;BME280;71598;46.516;-122.928;2023-08-08T10:45:42;100443.80;;;17.26;28.87
81999;BME280;71598;46.516;-122.928;2023-08-08T10:48:10;100444.92;;;17.49;28.84
81999;BME280;71598;46.516;-122.928;2023-08-08T10:50:31;100440.80;;;16.97;29.24
81999;BME280;71598;46.516;-122.928;2023-08-08T10:52:56;100444.26;;;16.44;29.40
81999;BME280;71598;46.516;-122.928;2023-08-08T10:55:23;100441.51;;;16.35;29.70
81999;BME280;71598;46.516;-122.928;2023-08-08T10:57:54;100440.00;;;16.47;29.31
81999;BME280;71598;46.516;-122.928;2023-08-08T11:00:21;100438.46;;;16.65;29.35
81999;BME280;71598;46.516;-122.928;2023-08-08T11:02:38;100437.80;;;16.50;29.30
81999;BME280;71598;46.516;-122.928;2023-08-08T11:05:03;100434.16;;;16.01;29.54
81999;BME280;71598;46.516;-122.928;2023-08-08T11:07:29;100432.64;;;16.60;29.43
81999;BME280;71598;46.516;-122.928;2023-08-08T11:09:54;100426.27;;;15.90;29.50
81999;BME280;71598;46.516;-122.928;2023-08-08T11:12:19;100425.96;;;16.79;29.25
81999;BME280;71598;46.516;-122.928;2023-08-08T11:14:45;100422.41;;;16.63;29.01
81999;BME280;71598;46.516;-122.928;2023-08-08T11:17:11;100422.69;;;15.92;29.57
81999;BME280;71598;46.516;-122.928;2023-08-08T11:19:40;100417.60;;;16.94;28.66
81999;BME280;71598;46.516;-122.928;2023-08-08T11:22:00;100408.68;;;17.94;27.40
81999;BME280;71598;46.516;-122.928;2023-08-08T11:24:25;100403.85;;;18.76;26.63
81999;BME280;71598;46.516;-122.928;2023-08-08T11:26:57;100400.04;;;18.64;26.14
81999;BME280;71598;46.516;-122.928;2023-08-08T11:29:16;100397.12;;;18.84;25.81
81999;BME280;71598;46.516;-122.928;2023-08-08T11:31:41;100396.27;;;19.15;25.39
81999;BME280;71598;46.516;-122.928;2023-08-08T11:34:07;100398.91;;;19.17;25.34
81999;BME280;71598;46.516;-122.928;2023-08-08T11:36:33;100402.06;;;19.14;25.27
81999;BME280;71598;46.516;-122.928;2023-08-08T11:38:59;100404.08;;;18.86;25.16
81999;BME280;71598;46.516;-122.928;2023-08-08T11:41:24;100404.11;;;19.23;25.10
81999;BME280;71598;46.516;-122.928;2023-08-08T11:43:48;100399.38;;;19.16;24.98
81999;BME280;71598;46.516;-122.928;2023-08-08T11:46:15;100397.62;;;19.22;24.94
81999;BME280;71598;46.516;-122.928;2023-08-08T11:48:39;100397.28;;;19.25;24.92
81999;BME280;71598;46.516;-122.928;2023-08-08T11:51:05;100399.27;;;19.22;24.79
81999;BME280;71598;46.516;-122.928;2023-08-08T11:53:30;100400.42;;;19.41;24.72
81999;BME280;71598;46.516;-122.928;2023-08-08T11:55:55;100401.53;;;19.28;24.77
81999;BME280;71598;46.516;-122.928;2023-08-08T11:58:20;100396.73;;;19.54;24.79
81999;BME280;71598;46.516;-122.928;2023-08-08T12:00:45;100396.81;;;19.41;24.74
81999;BME280;71598;46.516;-122.928;2023-08-08T12:03:11;100396.10;;;19.16;24.68
81999;BME280;71598;46.516;-122.928;2023-08-08T12:05:37;100397.06;;;19.21;24.71
81999;BME280;71598;46.516;-122.928;2023-08-08T12:08:02;100397.51;;;19.08;24.71
81999;BME280;71598;46.516;-122.928;2023-08-08T12:10:27;100396.25;;;19.10;24.73